Time,TemperatureF,DewpointF,PressureIn,WindDirection,WindDirectionDegrees,WindSpeedMPH,WindSpeedGustMPH,Humidity,HourlyPrecipIn,Conditions,Clouds,dailyrainin,SoftwareType,DateUTC
2013-03-30 10:15:00,48.7,42.8,29.99,North,355,9.0,9.0,80,0.00,,,0.04,Wunderground v.1.15,2013-03-30 15:15:00,
2013-03-30 10:25:00,49.1,42.9,29.99,North,360,8.0,8.0,79,0.00,,,0.04,Wunderground v.1.15,2013-03-30 15:25:00,
2013-03-30 10:30:00,49.1,42.9,29.99,NNW,338,8.0,11.0,79,0.00,,,0.04,Wunderground v.1.15,2013-03-30 15:30:00,
2013-03-30 10:35:00,49.5,43.6,29.99,North,351,8.0,15.0,80,0.00,,,0.04,Wunderground v.1.15,2013-03-30 15:35:00,
2013-03-30 10:45:00,49.9,43.0,29.99,North,360,8.0,15.0,77,0.00,,,0.04,Wunderground v.1.15,2013-03-30 15:45:00,
2013-03-30 10:50:00,50.1,42.5,29.99,North,355,10.0,15.0,75,0.00,,,0.04,Wunderground v.1.15,2013-03-30 15:50:00,
2013-03-30 11:00:00,50.7,42.4,29.99,NNW,335,8.0,8.0,73,0.00,,,0.04,Wunderground v.1.15,2013-03-30 16:00:00,
2013-03-30 11:10:00,51.4,42.7,29.99,NNE,17,9.0,9.0,72,0.00,,,0.04,Wunderground v.1.15,2013-03-30 16:10:00,
2013-03-30 11:20:00,51.7,43.0,29.99,NNW,328,7.0,15.0,72,0.00,,,0.04,Wunderground v.1.15,2013-03-30 16:20:00,
2013-03-30 11:30:00,52.3,42.4,29.99,NNW,342,7.0,15.0,69,0.00,,,0.04,Wunderground v.1.15,2013-03-30 16:30:00,
2013-03-30 11:40:00,53.0,43.1,29.99,NNW,329,7.0,15.0,69,0.00,,,0.04,Wunderground v.1.15,2013-03-30 16:40:00,
2013-03-30 11:50:00,53.5,42.8,29.99,North,355,8.0,8.0,67,0.00,,,0.04,Wunderground v.1.15,2013-03-30 16:50:00,
2013-03-30 12:00:00,53.9,42.8,29.99,North,355,8.0,14.0,66,0.00,,,0.04,Wunderground v.1.15,2013-03-30 17:00:00,
2013-03-30 12:10:00,53.6,43.3,29.99,North,355,8.0,14.0,68,0.00,,,0.04,Wunderground v.1.15,2013-03-30 17:10:00,
2013-03-30 12:20:00,54.2,43.1,30.00,NW,304,8.0,14.0,66,0.00,,,0.04,Wunderground v.1.15,2013-03-30 17:20:00,
2013-03-30 12:30:00,55.3,43.3,29.99,NNW,347,10.0,10.0,64,0.00,,,0.04,Wunderground v.1.15,2013-03-30 17:30:00,
2013-03-30 12:40:00,55.9,42.6,29.99,North,360,8.0,8.0,61,0.00,,,0.04,Wunderground v.1.15,2013-03-30 17:40:00,
2013-03-30 12:50:00,56.8,42.2,29.99,NNW,342,8.0,8.0,58,0.00,,,0.04,Wunderground v.1.15,2013-03-30 17:50:00,
2013-03-30 13:00:00,57.6,41.1,29.99,NNW,348,7.0,14.0,54,0.00,,,0.04,Wunderground v.1.15,2013-03-30 18:00:00,
2013-03-30 13:05:00,57.7,42.1,29.99,WNW,292,9.0,14.0,56,0.00,,,0.04,Wunderground v.1.15,2013-03-30 18:05:00,
2013-03-30 13:15:00,58.1,40.6,29.99,NNW,328,8.0,14.0,52,0.00,,,0.04,Wunderground v.1.15,2013-03-30 18:15:00,
2013-03-30 13:20:00,58.4,40.8,29.98,North,5,7.0,7.0,52,0.00,,,0.04,Wunderground v.1.15,2013-03-30 18:20:00,
2013-03-30 13:30:00,59.2,41.6,29.98,North,5,8.0,8.0,52,0.00,,,0.04,Wunderground v.1.15,2013-03-30 18:30:00,
2013-03-30 13:40:00,59.6,39.9,29.98,North,5,9.0,9.0,48,0.00,,,0.04,Wunderground v.1.15,2013-03-30 18:40:00,
2013-03-30 13:50:00,59.6,39.3,29.98,North,360,9.0,9.0,47,0.00,,,0.04,Wunderground v.1.15,2013-03-30 18:50:00,
2013-03-30 13:55:00,60.5,40.7,29.98,NE,38,8.0,14.0,48,0.00,,,0.04,Wunderground v.1.15,2013-03-30 18:55:00,
2013-03-30 14:00:00,60.4,38.9,29.98,NNW,344,8.0,14.0,45,0.00,,,0.04,Wunderground v.1.15,2013-03-30 19:00:00,
2013-03-30 14:10:00,60.5,40.7,29.98,NNE,26,9.0,9.0,48,0.00,,,0.04,Wunderground v.1.15,2013-03-30 19:10:00,
2013-03-30 14:20:00,61.6,39.5,29.97,NW,325,5.0,14.0,44,0.00,,,0.04,Wunderground v.1.15,2013-03-30 19:20:00,
2013-03-30 14:30:00,61.3,39.2,29.97,North,9,7.0,7.0,44,0.00,,,0.04,Wunderground v.1.15,2013-03-30 19:30:00,
2013-03-30 14:40:00,61.3,38.6,29.97,North,355,7.0,7.0,43,0.00,,,0.04,Wunderground v.1.15,2013-03-30 19:40:00,
2013-03-30 14:45:00,60.7,38.1,29.97,North,351,7.0,10.0,43,0.00,,,0.04,Wunderground v.1.15,2013-03-30 19:45:00,
2013-03-30 14:55:00,60.7,39.2,29.96,NNE,15,9.0,14.0,45,0.00,,,0.04,Wunderground v.1.15,2013-03-30 19:55:00,
2013-03-30 15:00:00,60.7,39.2,29.96,NNW,340,7.0,7.0,45,0.00,,,0.04,Wunderground v.1.15,2013-03-30 20:00:00,
2013-03-30 15:10:00,61.5,38.2,29.96,NNW,329,7.0,7.0,42,0.00,,,0.04,Wunderground v.1.15,2013-03-30 20:10:00,
2013-03-30 15:20:00,60.7,37.5,29.96,NW,306,7.0,15.0,42,0.00,,,0.04,Wunderground v.1.15,2013-03-30 20:20:00,
2013-03-30 15:30:00,60.5,37.3,29.96,NNW,338,9.0,14.0,42,0.00,,,0.04,Wunderground v.1.15,2013-03-30 20:30:00,
2013-03-30 15:40:00,59.4,38.0,29.96,WNW,298,7.0,7.0,45,0.00,,,0.04,Wunderground v.1.15,2013-03-30 20:40:00,
2013-03-30 15:50:00,59.0,36.5,29.96,NNW,346,7.0,7.0,43,0.00,,,0.04,Wunderground v.1.15,2013-03-30 20:50:00,
2013-03-30 15:55:00,59.1,36.6,29.96,NNW,347,7.0,14.0,43,0.00,,,0.04,Wunderground v.1.15,2013-03-30 20:55:00,
2013-03-30 16:05:00,58.9,37.0,29.95,WNW,303,7.0,14.0,44,0.00,,,0.04,Wunderground v.1.15,2013-03-30 21:05:00,
2013-03-30 16:10:00,59.3,37.9,29.95,North,350,7.0,7.0,45,0.00,,,0.04,Wunderground v.1.15,2013-03-30 21:10:00,
2013-03-30 16:20:00,59.8,36.0,29.95,NW,311,6.0,6.0,41,0.00,,,0.04,Wunderground v.1.15,2013-03-30 21:20:00,
2013-03-30 16:30:00,59.8,36.6,29.94,NW,304,4.0,4.0,42,0.00,,,0.04,Wunderground v.1.15,2013-03-30 21:30:00,
2013-03-30 16:40:00,59.8,36.0,29.95,NNW,336,6.0,6.0,41,0.00,,,0.04,Wunderground v.1.15,2013-03-30 21:40:00,
2013-03-30 16:45:00,59.9,36.7,29.95,NW,314,6.0,14.0,42,0.00,,,0.04,Wunderground v.1.15,2013-03-30 21:45:00,
2013-03-30 16:50:00,60.0,35.6,29.94,WNW,299,4.0,4.0,40,0.00,,,0.04,Wunderground v.1.15,2013-03-30 21:50:00,
2013-03-30 17:00:00,60.5,36.7,29.95,North,351,5.0,14.0,41,0.00,,,0.04,Wunderground v.1.15,2013-03-30 22:00:00,
2013-03-30 17:10:00,59.9,37.9,29.95,NW,325,6.0,14.0,44,0.00,,,0.04,Wunderground v.1.15,2013-03-30 22:10:00,
2013-03-30 17:20:00,54.6,42.7,29.97,NNW,347,11.0,15.0,64,0.00,,,0.04,Wunderground v.1.15,2013-03-30 22:20:00,
2013-03-30 17:25:00,52.4,44.0,29.97,NE,38,12.0,15.0,73,0.00,,,0.04,Wunderground v.1.15,2013-03-30 22:25:00,
2013-03-30 17:35:00,52.2,43.4,29.96,NNE,24,5.0,14.0,72,0.00,,,0.04,Wunderground v.1.15,2013-03-30 22:35:00,
2013-03-30 17:40:00,52.4,43.6,29.96,NNE,20,4.0,4.0,72,0.00,,,0.04,Wunderground v.1.15,2013-03-30 22:40:00,
2013-03-30 17:45:00,52.5,43.0,29.96,NNE,17,4.0,5.0,70,0.00,,,0.04,Wunderground v.1.15,2013-03-30 22:45:00,
2013-03-30 17:55:00,52.9,43.7,29.96,NNE,23,3.0,14.0,71,0.00,,,0.04,Wunderground v.1.15,2013-03-30 22:55:00,
2013-03-30 18:05:00,53.4,43.5,29.95,NNE,23,3.0,21.0,69,0.00,,,0.04,Wunderground v.1.15,2013-03-30 23:05:00,
2013-03-30 18:10:00,53.7,43.4,29.95,NNE,23,1.0,21.0,68,0.00,,,0.04,Wunderground v.1.15,2013-03-30 23:10:00,
2013-03-30 18:20:00,54.3,42.0,29.95,NE,34,3.0,21.0,63,0.00,,,0.04,Wunderground v.1.15,2013-03-30 23:20:00,
2013-03-30 18:30:00,54.1,43.0,29.95,NE,40,4.0,21.0,66,0.00,,,0.04,Wunderground v.1.15,2013-03-30 23:30:00,
2013-03-30 18:40:00,53.6,42.5,29.95,NE,38,3.0,3.0,66,0.00,,,0.04,Wunderground v.1.15,2013-03-30 23:40:00,
2013-03-30 18:45:00,53.6,42.9,29.95,NE,38,3.0,21.0,67,0.00,,,0.04,Wunderground v.1.15,2013-03-30 23:45:00,
2013-03-30 18:50:00,53.9,43.2,29.95,NE,38,2.0,2.0,67,0.00,,,0.04,Wunderground v.1.15,2013-03-30 23:50:00,
2013-03-30 19:00:00,53.8,42.7,29.95,NE,38,1.0,1.0,66,0.00,,,0.04,Wunderground v.1.15,2013-03-31 00:00:00,
2013-03-30 19:10:00,53.9,42.8,29.95,NE,38,0.0,21.0,66,0.00,,,0.04,Wunderground v.1.15,2013-03-31 00:10:00,
2013-03-30 19:20:00,54.0,43.3,29.95,NE,38,0.0,21.0,67,0.00,,,0.04,Wunderground v.1.15,2013-03-31 00:20:00,
2013-03-30 19:30:00,53.0,43.1,29.94,NE,38,1.0,21.0,69,0.00,,,0.04,Wunderground v.1.15,2013-03-31 00:30:00,
2013-03-30 19:35:00,52.4,43.3,29.95,NE,38,1.0,21.0,71,0.00,,,0.04,Wunderground v.1.15,2013-03-31 00:35:00,
2013-03-30 19:45:00,51.2,42.5,29.95,NE,38,0.0,21.0,72,0.00,,,0.04,Wunderground v.1.15,2013-03-31 00:45:00,
2013-03-30 19:50:00,50.8,42.5,29.95,NE,38,0.0,21.0,73,0.00,,,0.04,Wunderground v.1.15,2013-03-31 00:50:00,
2013-03-30 20:00:00,49.5,41.2,29.95,NE,38,2.0,2.0,73,0.00,,,0.04,Wunderground v.1.15,2013-03-31 01:00:00,
2013-03-30 20:10:00,48.4,40.8,29.95,NE,38,0.0,21.0,75,0.00,,,0.04,Wunderground v.1.15,2013-03-31 01:10:00,
2013-03-30 20:20:00,47.3,40.1,29.96,NE,38,2.0,2.0,76,0.00,,,0.04,Wunderground v.1.15,2013-03-31 01:20:00,
2013-03-30 20:25:00,47.2,40.0,29.96,NE,38,2.0,21.0,76,0.00,,,0.04,Wunderground v.1.15,2013-03-31 01:25:00,
2013-03-30 20:35:00,47.1,40.3,29.96,West,279,3.0,21.0,77,0.00,,,0.04,Wunderground v.1.15,2013-03-31 01:35:00,
2013-03-30 20:40:00,47.4,40.2,29.97,West,279,3.0,21.0,76,0.00,,,0.04,Wunderground v.1.15,2013-03-31 01:40:00,
2013-03-30 20:55:00,46.9,40.4,29.97,West,279,3.0,21.0,78,0.00,,,0.04,Wunderground v.1.15,2013-03-31 01:55:00,
2013-03-30 21:00:00,47.2,41.0,29.98,West,279,2.0,21.0,79,0.00,,,0.04,Wunderground v.1.15,2013-03-31 02:00:00,
2013-03-30 21:10:00,48.3,41.8,29.98,West,279,2.0,2.0,78,0.00,,,0.04,Wunderground v.1.15,2013-03-31 02:10:00,
2013-03-30 21:20:00,47.8,41.6,29.99,NNE,30,3.0,21.0,79,0.00,,,0.04,Wunderground v.1.15,2013-03-31 02:20:00,
2013-03-30 21:25:00,49.0,41.8,29.99,North,5,3.0,21.0,76,0.00,,,0.04,Wunderground v.1.15,2013-03-31 02:25:00,
2013-03-30 21:30:00,49.6,41.7,29.99,NNE,22,3.0,21.0,74,0.00,,,0.04,Wunderground v.1.15,2013-03-31 02:30:00,
2013-03-30 21:40:00,50.0,41.3,29.99,NNE,22,1.0,1.0,72,0.00,,,0.04,Wunderground v.1.15,2013-03-31 02:40:00,
2013-03-30 21:50:00,49.5,40.8,29.99,NNE,22,0.0,21.0,72,0.00,,,0.04,Wunderground v.1.15,2013-03-31 02:50:00,
2013-03-30 21:55:00,49.2,40.9,29.99,NNE,22,0.0,21.0,73,0.00,,,0.04,Wunderground v.1.15,2013-03-31 02:55:00,
2013-03-30 22:05:00,48.5,40.6,30.00,NNE,22,0.0,21.0,74,0.00,,,0.04,Wunderground v.1.15,2013-03-31 03:05:00,
2013-03-30 22:15:00,48.1,40.5,30.00,NNE,22,0.0,21.0,75,0.00,,,0.04,Wunderground v.1.15,2013-03-31 03:15:00,
2013-03-30 22:20:00,47.8,40.3,30.00,NNE,22,0.0,21.0,75,0.00,,,0.04,Wunderground v.1.15,2013-03-31 03:20:00,
2013-03-30 22:30:00,47.5,40.3,30.00,NNE,22,0.0,21.0,76,0.00,,,0.04,Wunderground v.1.15,2013-03-31 03:30:00,
2013-03-30 22:40:00,47.4,40.2,30.00,NNE,22,0.0,21.0,76,0.00,,,0.04,Wunderground v.1.15,2013-03-31 03:40:00,
2013-03-30 22:45:00,47.2,40.4,30.00,NNE,22,0.0,21.0,77,0.00,,,0.04,Wunderground v.1.15,2013-03-31 03:45:00,
2013-03-30 22:50:00,47.0,40.2,30.00,NNE,22,0.0,21.0,77,0.00,,,0.04,Wunderground v.1.15,2013-03-31 03:50:00,
2013-03-30 23:00:00,46.6,40.1,30.00,NNE,22,0.0,21.0,78,0.00,,,0.04,Wunderground v.1.15,2013-03-31 04:00:00,
2013-03-30 23:10:00,46.1,39.6,30.00,NNE,22,0.0,21.0,78,0.00,,,0.04,Wunderground v.1.15,2013-03-31 04:10:00,
2013-03-30 23:20:00,45.1,38.6,30.00,NNE,22,0.0,21.0,78,0.00,,,0.04,Wunderground v.1.15,2013-03-31 04:20:00,
2013-03-30 23:25:00,44.6,38.5,30.00,NNE,22,1.0,21.0,79,0.00,,,0.04,Wunderground v.1.15,2013-03-31 04:25:00,
2013-03-30 23:30:00,44.1,38.3,30.00,NNE,22,2.0,2.0,80,0.00,,,0.04,Wunderground v.1.15,2013-03-31 04:30:00,
2013-03-30 23:40:00,43.5,38.1,30.00,NNE,22,0.0,21.0,81,0.00,,,0.04,Wunderground v.1.15,2013-03-31 04:40:00,
2013-03-30 23:45:00,43.4,38.3,30.00,NNE,22,0.0,21.0,82,0.00,,,0.04,Wunderground v.1.15,2013-03-31 04:45:00,
2013-03-30 23:55:00,42.9,37.8,30.00,NNE,22,0.0,21.0,82,0.00,,,0.04,Wunderground v.1.15,2013-03-31 04:55:00,